Time;durP1;ratioP1;P1;durP2;ratioP2;P2;SDS_P1;SDS_P2;PMS_P1;PMS_P2;Temp;Humidity;BMP_temperature;BMP_pressure;BME280_temperature;BME280_humidity;BME280_pressure;Samples;Min_cycle;Max_cycle;Signal;HPM_P1;HPM_P2
2021/05/04 00:02:34;;;;;;;1999.90;999.90;;;;;;;13.08;54.72;-18256.91;4943148;29;20600;-30
2021/05/04 00:05:22;;;;;;;1999.90;999.90;;;;;;;12.90;54.26;-18251.97;4942441;29;20264;-30
2021/05/04 00:08:10;;;;;;;1999.90;999.90;;;;;;;13.00;54.38;-18254.75;4944044;29;20300;-30
2021/05/04 00:10:56;;;;;;;1999.90;999.90;;;;;;;12.93;53.98;-18252.88;4942649;29;20635;-31
2021/05/04 00:13:44;;;;;;;1999.90;999.90;;;;;;;12.98;53.94;-18254.09;4941421;29;20200;-30
2021/05/04 00:16:30;;;;;;;1999.90;999.90;;;;;;;12.90;54.32;-18252.09;4944317;29;20554;-30
2021/05/04 00:19:17;;;;;;;1999.90;999.90;;;;;;;12.99;53.99;-18254.34;4943459;29;20205;-30
2021/05/04 00:22:04;;;;;;;1999.90;999.90;;;;;;;13.09;53.87;-18257.03;4941305;29;20280;-30
2021/05/04 00:24:52;;;;;;;1999.90;999.90;;;;;;;12.94;53.61;-18253.03;4941190;29;20538;-30
2021/05/04 00:27:38;;;;;;;1999.90;999.90;;;;;;;13.22;52.99;-18260.50;4941802;29;20338;-29
2021/05/04 00:30:28;;;;;;;1999.90;999.90;;;;;;;13.24;53.06;-18260.91;4940739;29;20210;-30
2021/05/04 00:33:13;;;;;;;1999.90;999.90;;;;;;;13.08;52.33;-18256.91;4940347;29;20256;-30
2021/05/04 00:35:59;;;;;;;1999.90;999.90;;;;;;;12.96;53.06;-18253.56;4941525;29;20229;-29
2021/05/04 00:38:49;;;;;;;1999.90;999.90;;;;;;;13.17;52.32;-18259.16;4940533;29;20343;-30
2021/05/04 00:41:35;;;;;;;1999.90;999.90;;;;;;;13.22;52.68;-18260.50;4941690;29;20624;-29
2021/05/04 00:44:21;;;;;;;1999.90;999.90;;;;;;;13.29;52.12;-18262.38;4939765;29;20215;-30
2021/05/04 00:47:10;;;;;;;1999.90;999.90;;;;;;;13.19;52.30;-18259.69;4939691;29;20221;-29
2021/05/04 00:49:57;;;;;;;1999.90;999.90;;;;;;;13.23;52.89;-18260.63;4939687;29;20503;-30
2021/05/04 00:52:43;;;;;;;1999.90;999.90;;;;;;;13.27;52.05;-18261.69;4939931;29;20216;-30
2021/05/04 00:55:33;;;;;;;1999.90;999.90;;;;;;;13.16;51.71;-18258.91;4940619;29;20492;-29
2021/05/04 00:58:21;;;;;;;1999.90;999.90;;;;;;;13.34;51.61;-18263.69;4941430;29;20312;-29
2021/05/04 01:01:07;;;;;;;1999.90;999.90;;;;;;;13.55;51.45;-18269.03;4939814;29;20715;-30
2021/05/04 01:03:56;;;;;;;1999.90;999.90;;;;;;;13.55;51.64;-18269.03;4940014;29;20272;-29
2021/05/04 01:06:42;;;;;;;1999.90;999.90;;;;;;;13.55;51.66;-18269.03;4940199;29;20311;-30
2021/05/04 01:09:28;;;;;;;1999.90;999.90;;;;;;;13.43;51.21;-18265.97;4941684;29;20484;-29
2021/05/04 01:12:15;;;;;;;1999.90;999.90;;;;;;;13.55;51.14;-18269.03;4939915;29;20213;-29
2021/05/04 01:15:01;;;;;;;1999.90;999.90;;;;;;;13.61;51.00;-18270.63;4941795;29;20204;-29
2021/05/04 01:17:47;;;;;;;1999.90;999.90;;;;;;;13.60;50.21;-18270.38;4941980;29;20205;-29
2021/05/04 01:20:36;;;;;;;1999.90;999.90;;;;;;;13.69;50.26;-18272.78;4939650;29;20212;-29
2021/05/04 01:23:22;;;;;;;1999.90;999.90;;;;;;;13.72;49.80;-18273.56;4939774;29;20208;-29
2021/05/04 01:26:08;;;;;;;1999.90;999.90;;;;;;;13.71;49.93;-18273.44;4939691;29;20296;-29
2021/05/04 01:28:53;;;;;;;1999.90;999.90;;;;;;;13.73;50.24;-18273.84;4939525;29;20335;-29
2021/05/04 01:31:40;;;;;;;1999.90;999.90;;;;;;;13.89;49.73;-18277.97;4942179;29;20352;-30
2021/05/04 01:34:26;;;;;;;1999.90;999.90;;;;;;;13.84;49.74;-18276.78;4941332;29;20531;-30
2021/05/04 01:37:12;;;;;;;1999.90;999.90;;;;;;;13.84;49.59;-18276.63;4944907;29;20348;-30
2021/05/04 01:40:00;;;;;;;1999.90;999.90;;;;;;;13.83;49.78;-18276.50;4943741;29;20204;-30
2021/05/04 01:42:46;;;;;;;1999.90;999.90;;;;;;;13.78;49.39;-18275.16;4943018;29;20208;-30
2021/05/04 01:45:33;;;;;;;1999.90;999.90;;;;;;;13.78;49.55;-18275.31;4944315;29;20292;-29
2021/05/04 01:48:19;;;;;;;1999.90;999.90;;;;;;;13.71;50.28;-18273.31;4943045;29;20230;-29
2021/05/04 01:51:07;;;;;;;1999.90;999.90;;;;;;;13.82;50.15;-18276.22;4943023;29;20480;-29
2021/05/04 01:53:55;;;;;;;1999.90;999.90;;;;;;;13.82;49.80;-18276.09;4945365;29;20196;-29
2021/05/04 01:56:43;;;;;;;1999.90;999.90;;;;;;;13.74;49.53;-18274.25;4943218;29;20205;-30
2021/05/04 01:59:29;;;;;;;1999.90;999.90;;;;;;;13.85;49.51;-18277.03;4943100;29;20352;-30
2021/05/04 02:02:15;;;;;;;1999.90;999.90;;;;;;;13.66;49.56;-18272.09;4944986;29;20211;-29
2021/05/04 02:05:02;;;;;;;1999.90;999.90;;;;;;;13.93;49.85;-18279.03;4942837;29;20276;-30
2021/05/04 02:07:47;;;;;;;1999.90;999.90;;;;;;;13.93;49.47;-18279.03;4942751;29;20639;-29
2021/05/04 02:10:34;;;;;;;1999.90;999.90;;;;;;;13.91;49.96;-18278.50;4942524;29;20287;-30
2021/05/04 02:13:23;;;;;;;1999.90;999.90;;;;;;;13.80;49.71;-18275.84;4942709;29;20337;-29
2021/05/04 02:16:12;;;;;;;1999.90;999.90;;;;;;;13.77;49.66;-18274.91;4942800;29;20205;-30
2021/05/04 02:18:58;;;;;;;1999.90;999.90;;;;;;;13.70;50.02;-18273.16;4944264;29;20289;-29
2021/05/04 02:21:46;;;;;;;1999.90;999.90;;;;;;;13.68;49.84;-18272.50;4944135;29;20221;-30
2021/05/04 02:24:31;;;;;;;1999.90;999.90;;;;;;;13.73;49.74;-18273.97;4943424;29;20205;-29
2021/05/04 02:27:17;;;;;;;1999.90;999.90;;;;;;;13.66;48.41;-18272.09;4945239;29;20272;-30
2021/05/04 02:30:04;;;;;;;1999.90;999.90;;;;;;;13.97;47.98;-18280.25;4942938;29;20204;-29
2021/05/04 02:32:50;;;;;;;1999.90;999.90;;;;;;;14.17;48.15;-18285.31;4944113;29;20228;-29
2021/05/04 02:35:36;;;;;;;1999.90;999.90;;;;;;;13.93;47.64;-18279.16;4942550;29;20276;-29
2021/05/04 02:38:22;;;;;;;1999.90;999.90;;;;;;;13.76;46.89;-18274.63;4943892;29;20208;-30
2021/05/04 02:41:09;;;;;;;1999.90;999.90;;;;;;;13.87;47.33;-18277.56;4942957;29;20265;-30
2021/05/04 02:43:55;;;;;;;1999.90;999.90;;;;;;;13.82;48.25;-18276.22;4943954;29;20492;-30
2021/05/04 02:46:42;;;;;;;1999.90;999.90;;;;;;;13.66;50.02;-18271.97;4941431;29;20205;-30
2021/05/04 02:49:30;;;;;;;1999.90;999.90;;;;;;;13.45;51.46;-18266.63;4942001;29;20232;-30
2021/05/04 02:52:17;;;;;;;1999.90;999.90;;;;;;;13.60;51.42;-18270.50;4943971;29;20209;-30
2021/05/04 02:55:06;;;;;;;1999.90;999.90;;;;;;;13.83;52.16;-18276.38;4942572;29;20227;-30
2021/05/04 02:57:52;;;;;;;1999.90;999.90;;;;;;;13.52;52.29;-18268.25;4943058;29;20193;-30
2021/05/04 03:00:38;;;;;;;1999.90;999.90;;;;;;;13.56;53.73;-18269.31;4945106;29;20277;-29
2021/05/04 03:03:25;;;;;;;1999.90;999.90;;;;;;;13.24;59.49;-18261.03;4941921;29;20352;-30
2021/05/04 03:06:11;;;;;;;1999.90;999.90;;;;;;;12.74;66.02;-18247.94;4941919;29;20611;-29
2021/05/04 03:08:58;;;;;;;1999.90;999.90;;;;;;;12.55;68.52;-18242.75;4944941;29;20235;-29
2021/05/04 03:11:44;;;;;;;1999.90;999.90;;;;;;;12.34;72.09;-18237.41;4941699;29;20211;-29
2021/05/04 03:14:30;;;;;;;1999.90;999.90;;;;;;;12.35;74.84;-18237.53;4947939;29;20211;-29
2021/05/04 03:17:15;;;;;;;1999.90;999.90;;;;;;;12.16;75.70;-18232.47;4941851;29;20190;-29
2021/05/04 03:20:05;;;;;;;1999.90;999.90;;;;;;;11.92;82.10;-18226.31;4941494;29;20261;-29
2021/05/04 03:22:51;;;;;;;1999.90;999.90;;;;;;;11.74;82.95;-18221.66;4942141;29;20207;-28
2021/05/04 03:25:37;;;;;;;1999.90;999.90;;;;;;;11.85;87.35;-18224.31;4945948;29;20618;-28
2021/05/04 03:28:22;;;;;;;1999.90;999.90;;;;;;;11.65;93.21;-18219.09;4941041;29;20296;-29
2021/05/04 03:31:08;;;;;;;1999.90;999.90;;;;;;;11.42;98.31;-18212.97;4943823;29;20200;-29
2021/05/04 03:33:54;;;;;;;1999.90;999.90;;;;;;;11.05;100.00;-18203.34;4940967;29;20240;-29
2021/05/04 03:36:41;;;;;;;1999.90;999.90;;;;;;;11.01;100.00;-18202.41;4943476;29;20481;-31
2021/05/04 03:39:27;;;;;;;1999.90;999.90;;;;;;;10.66;100.00;-18193.06;4942927;29;20315;-29
2021/05/04 03:42:13;;;;;;;1999.90;999.90;;;;;;;10.65;100.00;-18192.78;4941278;29;20313;-29
2021/05/04 03:44:59;;;;;;;1999.90;999.90;;;;;;;10.63;100.00;-18192.38;4943037;29;20220;-29
2021/05/04 03:47:48;;;;;;;1999.90;999.90;;;;;;;10.32;100.00;-18184.09;4941339;29;20228;-28
2021/05/04 03:50:34;;;;;;;1999.90;999.90;;;;;;;10.00;100.00;-18175.66;4942498;29;20205;-29
2021/05/04 03:53:21;;;;;;;1999.90;999.90;;;;;;;10.12;100.00;-18178.75;4941761;29;20212;-29
2021/05/04 03:56:07;;;;;;;1999.90;999.90;;;;;;;9.92;100.00;-18173.53;4940942;29;20199;-29
2021/05/04 03:58:53;;;;;;;1999.90;999.90;;;;;;;9.95;100.00;-18174.31;4943422;29;20200;-29
2021/05/04 04:01:41;;;;;;;1999.90;999.90;;;;;;;9.78;100.00;-18169.78;4940784;29;20209;-29
2021/05/04 04:04:27;;;;;;;1999.90;999.90;;;;;;;9.41;100.00;-18160.00;4941537;29;20200;-29
2021/05/04 04:07:14;;;;;;;1999.90;999.90;;;;;;;9.39;100.00;-18159.47;4942482;29;20224;-29
2021/05/04 04:10:02;;;;;;;1999.90;999.90;;;;;;;9.48;100.00;-18162.00;4940897;29;20209;-29
2021/05/04 04:12:48;;;;;;;1999.90;999.90;;;;;;;9.19;100.00;-18154.25;4943265;29;20290;-29
2021/05/04 04:15:34;;;;;;;1999.90;999.90;;;;;;;9.10;100.00;-18151.97;4942775;29;20216;-29
2021/05/04 04:18:20;;;;;;;1999.90;999.90;;;;;;;9.30;100.00;-18157.19;4941668;29;20202;-29
2021/05/04 04:21:05;;;;;;;1999.90;999.90;;;;;;;9.32;100.00;-18157.88;4940003;29;20208;-29
2021/05/04 04:23:51;;;;;;;1999.90;999.90;;;;;;;9.15;100.00;-18153.31;4942220;29;20214;-29
2021/05/04 04:26:38;;;;;;;1999.90;999.90;;;;;;;9.14;100.00;-18152.91;4941262;29;20213;-28
2021/05/04 04:29:24;;;;;;;1999.90;999.90;;;;;;;9.09;100.00;-18151.56;4940331;29;20239;-29
2021/05/04 04:32:09;;;;;;;1999.90;999.90;;;;;;;9.33;100.00;-18158.13;4941116;29;20202;-28
2021/05/04 04:34:55;;;;;;;1999.90;999.90;;;;;;;9.08;100.00;-18151.44;4941197;29;20224;-28
2021/05/04 04:37:43;;;;;;;1999.90;999.90;;;;;;;8.91;100.00;-18147.03;4940234;29;20220;-29
2021/05/04 04:40:29;;;;;;;1999.90;999.90;;;;;;;8.84;100.00;-18145.16;4939860;29;20866;-28
2021/05/04 04:43:16;;;;;;;1999.90;999.90;;;;;;;8.80;100.00;-18143.94;4941705;29;20266;-29
2021/05/04 04:46:02;;;;;;;1999.90;999.90;;;;;;;9.05;100.00;-18150.63;4941861;29;20231;-29
2021/05/04 04:48:48;;;;;;;1999.90;999.90;;;;;;;8.89;100.00;-18146.34;4942126;29;20564;-30
2021/05/04 04:51:34;;;;;;;1999.90;999.90;;;;;;;8.81;100.00;-18144.34;4941242;29;20682;-30
2021/05/04 04:54:20;;;;;;;1999.90;999.90;;;;;;;9.13;100.00;-18152.78;4940360;29;20207;-30
2021/05/04 04:57:06;;;;;;;1999.90;999.90;;;;;;;9.00;100.00;-18149.28;4940331;29;20204;-30
2021/05/04 04:59:56;;;;;;;1999.90;999.90;;;;;;;9.11;100.00;-18152.25;4940073;29;20285;-30
2021/05/04 05:02:42;;;;;;;1999.90;999.90;;;;;;;8.97;100.00;-18148.50;4945090;29;20205;-30
2021/05/04 05:05:28;;;;;;;1999.90;999.90;;;;;;;9.08;100.00;-18151.44;4958905;29;20299;-31
2021/05/04 05:08:13;;;;;;;1999.90;999.90;;;;;;;9.14;100.00;-18152.91;4959127;28;20238;-30
2021/05/04 05:10:59;;;;;;;1999.90;999.90;;;;;;;9.13;100.00;-18152.78;4964091;29;20219;-30
2021/05/04 05:13:50;;;;;;;1999.90;999.90;;;;;;;9.26;100.00;-18156.13;4964498;29;20547;-31
2021/05/04 05:16:43;;;;;;;1999.90;999.90;;;;;;;9.39;100.00;-18159.59;4963088;29;20203;-30
2021/05/04 05:19:30;;;;;;;1999.90;999.90;;;;;;;9.28;100.00;-18156.66;4964150;29;20200;-30
2021/05/04 05:22:18;;;;;;;1999.90;999.90;;;;;;;9.39;100.00;-18159.59;4963857;29;20290;-31
2021/05/04 05:25:05;;;;;;;1999.90;999.90;;;;;;;9.25;100.00;-18156.00;4964363;29;20204;-30
2021/05/04 05:27:53;;;;;;;1999.90;999.90;;;;;;;9.35;100.00;-18158.41;4962055;29;20227;-30
2021/05/04 05:30:39;;;;;;;1999.90;999.90;;;;;;;9.38;100.00;-18159.22;4965335;29;20218;-30
2021/05/04 05:33:26;;;;;;;1999.90;999.90;;;;;;;9.58;100.00;-18164.69;4964183;29;20370;-30
2021/05/04 05:36:12;;;;;;;1999.90;999.90;;;;;;;9.51;100.00;-18162.81;4962263;29;20211;-30
2021/05/04 05:38:59;;;;;;;1999.90;999.90;;;;;;;9.56;100.00;-18164.16;4964812;29;20255;-30
2021/05/04 05:41:47;;;;;;;1999.90;999.90;;;;;;;9.58;100.00;-18164.56;4944296;29;20205;-30
2021/05/04 05:44:33;;;;;;;1999.90;999.90;;;;;;;9.58;100.00;-18164.69;4945086;29;20202;-30
2021/05/04 05:47:21;;;;;;;1999.90;999.90;;;;;;;9.64;100.00;-18166.28;4945546;29;20215;-30
2021/05/04 05:50:09;;;;;;;1999.90;999.90;;;;;;;9.82;100.00;-18170.84;4944239;29;20627;-30
2021/05/04 05:52:55;;;;;;;1999.90;999.90;;;;;;;9.83;100.00;-18171.25;4943064;29;20208;-30
2021/05/04 05:55:41;;;;;;;1999.90;999.90;;;;;;;9.82;100.00;-18170.97;4944690;29;20207;-30
2021/05/04 05:58:26;;;;;;;1999.90;999.90;;;;;;;10.06;100.00;-18177.25;4944446;29;20573;-30
2021/05/04 06:01:15;;;;;;;1999.90;999.90;;;;;;;9.78;100.00;-18169.91;4942264;29;20208;-30
2021/05/04 06:04:01;;;;;;;1999.90;999.90;;;;;;;9.80;100.00;-18170.44;4942896;29;20209;-30
2021/05/04 06:06:51;;;;;;;1999.90;999.90;;;;;;;9.91;100.00;-18173.38;4943319;29;20635;-30
2021/05/04 06:09:39;;;;;;;1999.90;999.90;;;;;;;10.33;100.00;-18184.34;4943932;29;20744;-30
2021/05/04 06:12:25;;;;;;;1999.90;999.90;;;;;;;10.10;100.00;-18178.34;4943333;29;20209;-30
2021/05/04 06:15:11;;;;;;;1999.90;999.90;;;;;;;10.01;100.00;-18175.94;4943522;29;20344;-30
2021/05/04 06:17:57;;;;;;;1999.90;999.90;;;;;;;10.09;100.00;-18177.94;4943194;29;20208;-30
2021/05/04 06:20:45;;;;;;;1999.90;999.90;;;;;;;10.00;100.00;-18175.78;4942744;29;20340;-30
2021/05/04 06:23:32;;;;;;;1999.90;999.90;;;;;;;10.27;100.00;-18182.75;4942691;29;20257;-30
2021/05/04 06:26:19;;;;;;;1999.90;999.90;;;;;;;10.00;100.00;-18175.78;4942359;29;20217;-30
2021/05/04 06:29:06;;;;;;;1999.90;999.90;;;;;;;9.99;100.00;-18175.41;4941909;29;20227;-30
2021/05/04 06:31:58;;;;;;;1999.90;999.90;;;;;;;10.12;100.00;-18178.75;4942065;29;20204;-30
2021/05/04 06:34:46;;;;;;;1999.90;999.90;;;;;;;10.00;100.00;-18175.78;4941645;29;20361;-30
2021/05/04 06:37:35;;;;;;;1999.90;999.90;;;;;;;9.74;100.00;-18168.84;4942096;29;20216;-29
2021/05/04 06:40:22;;;;;;;1999.90;999.90;;;;;;;9.84;100.00;-18171.38;4943135;29;20360;-30
2021/05/04 06:43:14;;;;;;;1999.90;999.90;;;;;;;9.60;100.00;-18165.09;4942433;29;20208;-30
2021/05/04 06:46:04;;;;;;;1999.90;999.90;;;;;;;9.72;100.00;-18168.31;4943281;29;20211;-30
2021/05/04 06:48:53;;;;;;;1999.90;999.90;;;;;;;9.61;100.00;-18165.34;4942859;29;20232;-30
2021/05/04 06:51:39;;;;;;;1999.90;999.90;;;;;;;9.59;100.00;-18164.81;4942653;29;20325;-30
2021/05/04 06:54:25;;;;;;;1999.90;999.90;;;;;;;9.72;100.00;-18168.16;4941770;29;20212;-30
2021/05/04 06:57:14;;;;;;;1999.90;999.90;;;;;;;10.01;100.00;-18175.94;4943378;29;20310;-30
2021/05/04 07:00:00;;;;;;;1999.90;999.90;;;;;;;9.96;100.00;-18174.72;4943050;29;20538;-30
2021/05/04 07:02:49;;;;;;;1999.90;999.90;;;;;;;9.78;100.00;-18169.91;4941846;29;20519;-30
2021/05/04 07:05:38;;;;;;;1999.90;999.90;;;;;;;10.03;100.00;-18176.47;4943070;29;20196;-30
2021/05/04 07:08:25;;;;;;;1999.90;999.90;;;;;;;10.05;100.00;-18176.88;4943856;29;20387;-30
2021/05/04 07:11:15;;;;;;;1999.90;999.90;;;;;;;10.24;100.00;-18182.09;4942038;29;20201;-30
2021/05/04 07:14:05;;;;;;;1999.90;999.90;;;;;;;10.39;100.00;-18185.84;4942540;29;20224;-30
2021/05/04 07:16:51;;;;;;;1999.90;999.90;;;;;;;10.64;100.00;-18192.66;4942050;29;20477;-30
2021/05/04 07:19:39;;;;;;;1999.90;999.90;;;;;;;10.89;100.00;-18199.06;4944854;29;20205;-30
2021/05/04 07:22:27;;;;;;;1999.90;999.90;;;;;;;10.87;100.00;-18198.53;4950868;29;20504;-30
2021/05/04 07:25:13;;;;;;;1999.90;999.90;;;;;;;11.19;100.00;-18206.94;4960624;29;20606;-30
2021/05/04 07:28:00;;;;;;;1999.90;999.90;;;;;;;11.51;100.00;-18215.50;4960420;29;20200;-30
2021/05/04 07:30:50;;;;;;;1999.90;999.90;;;;;;;12.19;100.00;-18233.28;4960776;28;20567;-30
2021/05/04 07:33:35;;;;;;;1999.90;999.90;;;;;;;11.52;100.00;-18215.63;4959924;29;20241;-30
2021/05/04 07:36:25;;;;;;;1999.90;999.90;;;;;;;11.81;100.00;-18223.38;4961421;29;20212;-31
2021/05/04 07:39:12;;;;;;;1999.90;999.90;;;;;;;11.89;100.00;-18225.53;4960613;29;20200;-30
2021/05/04 07:41:59;;;;;;;1999.90;999.90;;;;;;;11.62;100.00;-18218.31;4959177;29;20200;-30
2021/05/04 07:44:45;;;;;;;1999.90;999.90;;;;;;;11.57;100.00;-18216.97;4960137;29;20674;-30
2021/05/04 07:47:32;;;;;;;1999.90;999.90;;;;;;;11.68;100.00;-18220.03;4961263;29;20362;-30
2021/05/04 07:50:23;;;;;;;1999.90;999.90;;;;;;;11.50;100.00;-18215.09;4960780;29;20192;-30
2021/05/04 07:53:09;;;;;;;1999.90;999.90;;;;;;;11.61;100.00;-18218.03;4960304;29;20323;-30
2021/05/04 07:55:55;;;;;;;1999.90;999.90;;;;;;;11.37;100.00;-18211.91;4960129;29;20600;-30
2021/05/04 07:58:41;;;;;;;1999.90;999.90;;;;;;;11.38;100.00;-18212.16;4960197;29;20264;-30
2021/05/04 08:01:27;;;;;;;1999.90;999.90;;;;;;;11.12;100.00;-18205.22;4960105;29;20496;-30
2021/05/04 08:04:18;;;;;;;1999.90;999.90;;;;;;;11.40;100.00;-18212.69;4960312;29;20616;-30
2021/05/04 08:07:07;;;;;;;1999.90;999.90;;;;;;;11.20;100.00;-18207.34;4959979;29;20662;-30
2021/05/04 08:09:56;;;;;;;1999.90;999.90;;;;;;;11.21;100.00;-18207.63;4960332;29;20287;-30
2021/05/04 08:12:43;;;;;;;1999.90;999.90;;;;;;;11.10;100.00;-18204.69;4965701;29;20271;-30
2021/05/04 08:15:33;;;;;;;1999.90;999.90;;;;;;;11.04;100.00;-18203.06;4964111;29;20204;-31
2021/05/04 08:18:19;;;;;;;1999.90;999.90;;;;;;;10.69;100.00;-18193.97;4960783;29;20267;-31
2021/05/04 08:21:09;;;;;;;1999.90;999.90;;;;;;;10.75;100.00;-18195.31;4960106;29;20236;-31
2021/05/04 08:23:55;;;;;;;1999.90;999.90;;;;;;;11.13;100.00;-18205.34;4960821;29;20232;-31
2021/05/04 08:26:44;;;;;;;1999.90;999.90;;;;;;;11.17;100.00;-18206.56;4959082;29;20607;-31
2021/05/04 08:29:31;;;;;;;1999.90;999.90;;;;;;;11.07;100.00;-18203.88;4959955;29;20507;-31
2021/05/04 08:32:17;;;;;;;1999.90;999.90;;;;;;;10.90;100.00;-18199.34;4960070;29;20656;-31
2021/05/04 08:35:07;;;;;;;1999.90;999.90;;;;;;;10.93;100.00;-18200.28;4959941;29;20625;-31
2021/05/04 08:38:00;;;;;;;1999.90;999.90;;;;;;;11.19;100.00;-18207.09;4960194;29;20310;-31
2021/05/04 08:40:51;;;;;;;1999.90;999.90;;;;;;;11.25;100.00;-18208.69;4958992;29;20268;-31
2021/05/04 08:43:38;;;;;;;1999.90;999.90;;;;;;;11.38;100.00;-18212.16;4958609;28;20207;-31
2021/05/04 08:46:24;;;;;;;1999.90;999.90;;;;;;;11.49;100.00;-18214.84;4959601;29;20622;-29
2021/05/04 08:49:13;;;;;;;1999.90;999.90;;;;;;;11.22;100.00;-18207.88;4959331;29;20383;-29
2021/05/04 08:52:01;;;;;;;1999.90;999.90;;;;;;;11.06;100.00;-18203.59;4958976;29;20512;-30
2021/05/04 08:54:50;;;;;;;1999.90;999.90;;;;;;;11.37;100.00;-18211.91;4959199;29;20251;-30
2021/05/04 08:57:38;;;;;;;1999.90;999.90;;;;;;;11.14;100.00;-18205.75;4960517;29;20200;-30
2021/05/04 09:00:26;;;;;;;1999.90;999.90;;;;;;;10.90;100.00;-18199.34;4960489;29;20247;-30
2021/05/04 09:03:15;;;;;;;1999.90;999.90;;;;;;;10.63;100.00;-18192.38;4961375;29;20204;-30
2021/05/04 09:06:06;;;;;;;1999.90;999.90;;;;;;;10.72;100.00;-18194.53;4961460;29;20434;-30
2021/05/04 09:09:07;;;;;;;1999.90;999.90;;;;;;;10.79;100.00;-18196.41;4968659;29;20251;-30
2021/05/04 09:12:08;;;;;;;1999.90;999.90;;;;;;;10.91;100.00;-18199.72;4967430;29;20224;-30
2021/05/04 09:14:57;;;;;;;1999.90;999.90;;;;;;;10.48;100.00;-18188.25;4961415;29;20196;-29
2021/05/04 09:17:48;;;;;;;1999.90;999.90;;;;;;;10.26;100.00;-18182.63;4958336;29;20618;-29
2021/05/04 09:20:49;;;;;;;1999.90;999.90;;;;;;;10.56;100.00;-18190.38;4958798;29;20201;-29
2021/05/04 09:23:35;;;;;;;1999.90;999.90;;;;;;;10.54;100.00;-18189.97;4959076;29;20625;-29
2021/05/04 09:26:30;;;;;;;1999.90;999.90;;;;;;;10.59;100.00;-18191.19;4960471;29;20220;-29
2021/05/04 09:29:20;;;;;;;1999.90;999.90;;;;;;;11.32;100.00;-18210.44;4959302;29;20293;-30
2021/05/04 09:32:20;;;;;;;1999.90;999.90;;;;;;;11.22;100.00;-18207.88;4959245;29;20200;-30
2021/05/04 09:35:13;;;;;;;1999.90;999.90;;;;;;;10.90;100.00;-18199.47;4959794;29;20284;-29
2021/05/04 09:38:06;;;;;;;1999.90;999.90;;;;;;;11.50;100.00;-18215.22;4959213;29;20363;-30
2021/05/04 09:40:54;;;;;;;1999.90;999.90;;;;;;;11.38;100.00;-18212.16;4959694;29;20291;-30
2021/05/04 09:43:41;;;;;;;1999.90;999.90;;;;;;;11.50;100.00;-18215.22;4960067;29;20211;-30
2021/05/04 09:46:48;;;;;;;1999.90;999.90;;;;;;;11.83;100.00;-18223.91;4959419;29;20209;-30
2021/05/04 09:49:36;;;;;;;1999.90;999.90;;;;;;;12.01;100.00;-18228.72;4957923;29;20252;-30
2021/05/04 09:52:30;;;;;;;1999.90;999.90;;;;;;;12.34;100.00;-18237.41;4939662;29;20351;-30
2021/05/04 09:55:19;;;;;;;1999.90;999.90;;;;;;;12.39;100.00;-18238.59;4944882;29;20234;-30
2021/05/04 09:58:09;;;;;;;1999.90;999.90;;;;;;;12.69;100.00;-18246.47;4943796;29;20306;-30
2021/05/04 10:00:56;;;;;;;1999.90;999.90;;;;;;;12.32;100.00;-18236.75;4942797;29;20311;-30
2021/05/04 10:03:45;;;;;;;1999.90;999.90;;;;;;;12.25;100.00;-18235.00;4942321;29;20677;-30
2021/05/04 10:06:31;;;;;;;1999.90;999.90;;;;;;;12.06;100.00;-18230.06;4941779;29;20219;-30
2021/05/04 10:09:20;;;;;;;1999.90;999.90;;;;;;;12.65;100.00;-18245.41;4942433;29;20246;-30
2021/05/04 10:12:12;;;;;;;1999.90;999.90;;;;;;;12.50;100.00;-18241.53;4941745;29;20315;-30
2021/05/04 10:15:01;;;;;;;1999.90;999.90;;;;;;;12.29;100.00;-18236.06;4942593;29;20281;-29
2021/05/04 10:17:48;;;;;;;1999.90;999.90;;;;;;;11.72;100.00;-18220.97;4942061;29;20351;-29
2021/05/04 10:20:36;;;;;;;1999.90;999.90;;;;;;;11.16;100.00;-18206.28;4941157;29;20656;-29
2021/05/04 10:23:29;;;;;;;1999.90;999.90;;;;;;;11.23;100.00;-18208.03;4942157;29;20213;-31
2021/05/04 10:26:17;;;;;;;1999.90;999.90;;;;;;;11.69;100.00;-18220.31;4941844;29;20204;-30
2021/05/04 10:29:07;;;;;;;1999.90;999.90;;;;;;;12.26;100.00;-18235.13;4941194;29;20617;-30
2021/05/04 10:31:59;;;;;;;1999.90;999.90;;;;;;;12.10;100.00;-18231.00;4942076;29;20205;-30
2021/05/04 10:34:46;;;;;;;1999.90;999.90;;;;;;;12.64;100.00;-18245.28;4941978;29;20210;-30
2021/05/04 10:37:34;;;;;;;1999.90;999.90;;;;;;;12.27;100.00;-18235.41;4942189;29;20211;-30
2021/05/04 10:40:21;;;;;;;1999.90;999.90;;;;;;;12.08;100.00;-18230.47;4942006;29;20202;-30
2021/05/04 10:43:39;;;;;;;1999.90;999.90;;;;;;;13.68;100.00;-18272.50;4942196;29;20389;-30
2021/05/04 10:46:41;;;;;;;1999.90;999.90;;;;;;;13.40;100.00;-18265.16;4942516;29;20484;-30
2021/05/04 10:49:56;;;;;;;1999.90;999.90;;;;;;;13.03;100.00;-18255.56;4956519;29;20228;-30
2021/05/04 10:53:03;;;;;;;1999.90;999.90;;;;;;;13.88;100.00;-18277.84;4946648;29;20485;-30
2021/05/04 10:56:09;;;;;;;1999.90;999.90;;;;;;;13.36;100.00;-18264.25;4941701;29;20203;-30
2021/05/04 10:58:55;;;;;;;1999.90;999.90;;;;;;;12.43;100.00;-18239.81;4941439;29;20349;-30
2021/05/04 11:02:28;;;;;;;1999.90;999.90;;;;;;;12.43;100.00;-18239.81;4941072;29;20212;-30
2021/05/04 11:05:47;;;;;;;1999.90;999.90;;;;;;;12.42;100.00;-18239.41;4943617;29;20627;-30
2021/05/04 11:09:10;;;;;;;1999.90;999.90;;;;;;;12.42;100.00;-18239.41;4940761;29;20262;-30
2021/05/04 11:11:57;;;;;;;1999.90;999.90;;;;;;;12.53;100.00;-18242.22;4941026;29;20215;-30
2021/05/04 11:14:43;;;;;;;1999.90;999.90;;;;;;;12.75;100.00;-18248.22;4941263;29;20290;-30
2021/05/04 11:17:42;;;;;;;1999.90;999.90;;;;;;;13.28;100.00;-18261.97;4943478;29;20204;-30
2021/05/04 11:20:36;;;;;;;1999.90;999.90;;;;;;;13.67;100.00;-18272.25;4940441;29;20204;-30
2021/05/04 11:23:26;;;;;;;1999.90;999.90;;;;;;;13.91;100.00;-18278.63;4940605;29;20205;-30
2021/05/04 11:26:48;;;;;;;1999.90;999.90;;;;;;;14.73;100.00;-18300.22;4957433;29;20264;-30
2021/05/04 11:29:46;;;;;;;1999.90;999.90;;;;;;;13.49;100.00;-18267.44;4950389;29;20232;-29
2021/05/04 11:32:44;;;;;;;1999.90;999.90;;;;;;;12.05;100.00;-18229.78;4941722;29;20251;-29
2021/05/04 11:35:37;;;;;;;1999.90;999.90;;;;;;;11.18;100.00;-18206.81;4960740;29;20280;-29
2021/05/04 11:38:25;;;;;;;1999.90;999.90;;;;;;;10.93;100.00;-18200.13;4945237;29;20611;-30
2021/05/04 11:41:10;;;;;;;1999.90;999.90;;;;;;;11.97;100.00;-18227.66;4941919;29;20206;-30
2021/05/04 11:43:57;;;;;;;1999.90;999.90;;;;;;;12.59;100.00;-18243.81;4949691;29;20768;-29
2021/05/04 11:46:43;;;;;;;1999.90;999.90;;;;;;;13.23;100.00;-18260.63;4952541;29;20207;-30
2021/05/04 11:49:29;;;;;;;1999.90;999.90;;;;;;;13.11;100.00;-18257.69;4955546;29;20287;-30
2021/05/04 11:52:19;;;;;;;1999.90;999.90;;;;;;;13.60;100.00;-18270.50;4942059;29;20296;-29
2021/05/04 11:55:14;;;;;;;1999.90;999.90;;;;;;;13.73;100.00;-18273.84;4952347;29;20201;-29
2021/05/04 11:58:01;;;;;;;1999.90;999.90;;;;;;;13.22;100.00;-18260.50;4950396;29;20225;-29
2021/05/04 12:00:56;;;;;;;1999.90;999.90;;;;;;;12.92;100.00;-18252.63;4944215;29;20204;-29
2021/05/04 12:03:51;;;;;;;1999.90;999.90;;;;;;;13.06;100.00;-18256.34;4941385;29;20598;-30
2021/05/04 12:06:45;;;;;;;1999.90;999.90;;;;;;;12.92;100.00;-18252.63;4941538;29;20263;-29
2021/05/04 12:09:41;;;;;;;1999.90;999.90;;;;;;;13.11;100.00;-18257.56;4958170;29;20645;-30
2021/05/04 12:12:46;;;;;;;1999.90;999.90;;;;;;;13.22;100.00;-18260.50;4951199;29;20204;-30
2021/05/04 12:15:33;;;;;;;1999.90;999.90;;;;;;;13.36;100.00;-18264.25;4959735;29;20212;-29
2021/05/04 12:18:23;;;;;;;1999.90;999.90;;;;;;;13.65;100.00;-18271.69;4957798;28;20207;-30